createdAt,value
2019-05-18T00:00:30.173Z,9.30
2019-05-18T00:01:35.141Z,9.30
2019-05-18T00:02:39.563Z,9.30
2019-05-18T00:03:44.565Z,9.30
2019-05-18T00:04:50.333Z,9.30
2019-05-18T00:05:55.481Z,9.30
2019-05-18T00:06:59.843Z,9.20
2019-05-18T00:08:05.166Z,9.20
2019-05-18T00:09:09.582Z,9.20
2019-05-18T00:10:14.906Z,9.20
2019-05-18T00:11:19.251Z,9.20
2019-05-18T00:12:24.349Z,9.20
2019-05-18T00:13:29.720Z,9.20
2019-05-18T00:14:34.659Z,9.20
2019-05-18T00:15:39.109Z,9.20
2019-05-18T00:16:44.121Z,9.20
2019-05-18T00:17:50.338Z,9.20
2019-05-18T00:18:55.451Z,9.20
2019-05-18T00:19:59.802Z,9.10
2019-05-18T00:21:04.742Z,9.20
2019-05-18T00:22:09.136Z,9.20
2019-05-18T00:23:14.145Z,9.10
2019-05-18T00:24:18.555Z,9.10
2019-05-18T00:25:23.496Z,9.10
2019-05-18T00:26:28.968Z,9.10
2019-05-18T00:27:34.083Z,9.10
2019-05-18T00:28:38.484Z,9.10
2019-05-18T00:29:43.519Z,9.10
2019-05-18T00:30:47.977Z,9.00
2019-05-18T00:31:52.877Z,9.00
2019-05-18T00:32:57.277Z,9.00
2019-05-18T00:34:02.272Z,9.00
2019-05-18T00:35:07.557Z,9.00
2019-05-18T00:36:12.675Z,8.90
2019-05-18T00:37:17.051Z,8.90
2019-05-18T00:38:21.943Z,8.90
2019-05-18T00:39:26.362Z,8.90
2019-05-18T00:40:31.282Z,9.00
2019-05-18T00:41:35.590Z,9.00
2019-05-18T00:42:40.496Z,9.00
2019-05-18T00:43:44.880Z,8.90
2019-05-18T00:44:49.805Z,8.90
2019-05-18T00:45:54.215Z,8.90
2019-05-18T00:46:59.144Z,8.90
2019-05-18T00:48:03.597Z,8.90
2019-05-18T00:49:08.552Z,8.90
2019-05-18T00:50:13.749Z,8.90
2019-05-18T00:51:18.673Z,8.80
2019-05-18T00:52:23.052Z,8.80
2019-05-18T00:53:27.941Z,8.70
2019-05-18T00:54:32.374Z,8.70
2019-05-18T00:55:37.354Z,8.70
2019-05-18T00:56:41.730Z,8.60
2019-05-18T00:57:46.624Z,8.50
2019-05-18T00:58:51.109Z,8.60
2019-05-18T00:59:56.014Z,8.60
2019-05-18T01:01:00.336Z,8.50
2019-05-18T01:02:08.619Z,8.50
2019-05-18T01:03:13.174Z,8.40
2019-05-18T01:04:18.057Z,8.40
2019-05-18T01:05:22.466Z,8.40
2019-05-18T01:06:27.424Z,8.40
2019-05-18T01:07:33.562Z,8.30
2019-05-18T01:08:38.605Z,8.20
2019-05-18T01:09:43.072Z,8.10
2019-05-18T01:10:48.019Z,8.10
2019-05-18T01:11:52.347Z,8.10
2019-05-18T01:12:58.549Z,8.00
2019-05-18T01:14:03.419Z,7.90
2019-05-18T01:15:10.704Z,7.90
2019-05-18T01:16:15.173Z,7.90
2019-05-18T01:17:20.422Z,7.90
2019-05-18T01:18:26.576Z,7.90
2019-05-18T01:19:32.438Z,7.80
2019-05-18T01:20:36.819Z,7.90
2019-05-18T01:21:41.757Z,7.80
2019-05-18T01:22:46.086Z,7.80
2019-05-18T01:23:50.987Z,7.80
2019-05-18T01:24:55.286Z,7.80
2019-05-18T01:26:00.420Z,7.80
2019-05-18T01:27:07.798Z,7.80
2019-05-18T01:28:12.821Z,7.80
2019-05-18T01:29:17.272Z,7.80
2019-05-18T01:30:23.090Z,7.80
2019-05-18T01:31:27.412Z,7.80
2019-05-18T01:32:32.692Z,7.80
2019-05-18T01:33:37.516Z,7.80
2019-05-18T01:34:42.520Z,7.80
2019-05-18T01:35:47.133Z,7.80
2019-05-18T01:36:53.393Z,7.80
2019-05-18T01:37:57.833Z,7.80
2019-05-18T01:39:02.746Z,7.70
2019-05-18T01:40:07.985Z,7.80
2019-05-18T01:41:13.056Z,7.80
2019-05-18T01:42:17.447Z,7.90
2019-05-18T01:43:22.804Z,7.80
2019-05-18T01:44:27.552Z,7.80
2019-05-18T01:45:32.441Z,7.70
2019-05-18T01:46:36.845Z,7.70
2019-05-18T01:47:41.853Z,7.70
2019-05-18T01:48:46.257Z,7.60
2019-05-18T01:49:53.805Z,7.60
2019-05-18T01:50:58.171Z,7.60
2019-05-18T01:52:03.221Z,7.60
2019-05-18T01:53:07.776Z,7.50
2019-05-18T01:54:12.781Z,7.50
2019-05-18T01:55:17.137Z,7.50
2019-05-18T01:56:22.019Z,7.50
2019-05-18T01:57:26.397Z,7.50
2019-05-18T01:58:31.292Z,7.50
2019-05-18T01:59:35.697Z,7.50
2019-05-18T02:00:40.561Z,7.40
2019-05-18T02:01:44.964Z,7.40
2019-05-18T02:02:49.851Z,7.40
2019-05-18T02:03:55.675Z,7.40
2019-05-18T02:05:00.564Z,7.40
2019-05-18T02:06:05.488Z,7.40
2019-05-18T02:07:10.700Z,7.40
2019-05-18T02:08:15.056Z,7.40
2019-05-18T02:09:20.118Z,7.40
2019-05-18T02:10:24.534Z,7.40
2019-05-18T02:11:29.623Z,7.40
2019-05-18T02:12:34.205Z,7.40
2019-05-18T02:13:39.053Z,7.40
2019-05-18T02:14:43.384Z,7.40
2019-05-18T02:15:48.236Z,7.40
2019-05-18T02:16:52.603Z,7.40
2019-05-18T02:17:58.647Z,7.40
2019-05-18T02:19:03.190Z,7.40
2019-05-18T02:20:08.953Z,7.30
2019-05-18T02:21:13.487Z,7.30
2019-05-18T02:22:18.437Z,7.20
2019-05-18T02:23:22.757Z,7.20
2019-05-18T02:24:28.108Z,7.20
2019-05-18T02:25:32.501Z,7.20
2019-05-18T02:26:37.422Z,7.30
2019-05-18T02:27:41.897Z,7.30
2019-05-18T02:28:46.736Z,7.30
2019-05-18T02:29:51.313Z,7.30
2019-05-18T02:30:56.219Z,7.30
2019-05-18T02:32:00.524Z,7.40
2019-05-18T02:33:06.615Z,7.50
2019-05-18T02:34:11.120Z,7.50
2019-05-18T02:35:16.094Z,7.50
2019-05-18T02:36:21.794Z,7.50
2019-05-18T02:37:26.956Z,7.40
2019-05-18T02:38:32.877Z,7.30
2019-05-18T02:39:37.916Z,7.20
2019-05-18T02:40:42.433Z,7.20
2019-05-18T02:41:47.385Z,7.10
2019-05-18T02:42:52.016Z,7.10
2019-05-18T02:43:56.929Z,7.10
2019-05-18T02:45:01.570Z,7.00
2019-05-18T02:46:06.740Z,7.00
2019-05-18T02:47:12.474Z,6.90
2019-05-18T02:48:17.553Z,6.90
2019-05-18T02:49:21.926Z,6.90
2019-05-18T02:50:27.089Z,7.00
2019-05-18T02:51:31.434Z,7.00
2019-05-18T02:52:36.407Z,7.00
2019-05-18T02:53:40.940Z,7.10
2019-05-18T02:54:45.852Z,7.10
2019-05-18T02:55:50.244Z,7.10
2019-05-18T02:56:55.233Z,7.20
2019-05-18T02:57:59.550Z,7.20
2019-05-18T02:59:04.799Z,7.20
2019-05-18T03:00:09.872Z,7.20
2019-05-18T03:01:15.240Z,7.20
2019-05-18T03:02:19.590Z,7.10
2019-05-18T03:03:24.799Z,7.10
2019-05-18T03:04:29.362Z,7.10
2019-05-18T03:05:34.510Z,7.20
2019-05-18T03:06:40.793Z,7.20
2019-05-18T03:07:45.747Z,7.10
2019-05-18T03:08:50.550Z,7.10
2019-05-18T03:09:55.442Z,7.10
2019-05-18T03:10:59.891Z,7.00
2019-05-18T03:12:05.212Z,7.00
2019-05-18T03:13:09.587Z,6.90
2019-05-18T03:14:14.994Z,6.90
2019-05-18T03:15:19.345Z,6.90
2019-05-18T03:16:24.314Z,6.90
2019-05-18T03:17:28.727Z,6.90
2019-05-18T03:18:34.608Z,6.90
2019-05-18T03:19:40.321Z,6.90
2019-05-18T03:20:45.275Z,6.90
2019-05-18T03:21:49.961Z,6.80
2019-05-18T03:22:54.912Z,6.80
2019-05-18T03:23:59.429Z,6.70
2019-05-18T03:25:04.346Z,6.70
2019-05-18T03:26:08.749Z,6.70
2019-05-18T03:27:14.372Z,6.70
2019-05-18T03:28:18.692Z,6.70
2019-05-18T03:29:23.544Z,6.80
2019-05-18T03:30:28.132Z,6.70
2019-05-18T03:31:33.222Z,6.80
2019-05-18T03:32:37.620Z,6.80
2019-05-18T03:33:42.604Z,6.80
2019-05-18T03:34:46.993Z,6.80
2019-05-18T03:35:51.914Z,6.90
2019-05-18T03:36:57.702Z,6.90
2019-05-18T03:38:02.623Z,7.00
2019-05-18T03:39:07.473Z,7.00
2019-05-18T03:40:13.538Z,7.00
2019-05-18T03:41:17.951Z,7.00
2019-05-18T03:42:22.916Z,7.00
2019-05-18T03:43:27.353Z,7.00
2019-05-18T03:44:34.104Z,7.10
2019-05-18T03:45:38.794Z,7.10
2019-05-18T03:46:43.774Z,7.10
2019-05-18T03:47:48.169Z,7.10
2019-05-18T03:48:53.201Z,7.10
2019-05-18T03:49:57.522Z,7.10
2019-05-18T03:51:02.609Z,7.10
2019-05-18T03:52:07.106Z,7.00
2019-05-18T03:53:12.657Z,7.00
2019-05-18T03:54:17.036Z,7.00
2019-05-18T03:55:22.053Z,7.00
2019-05-18T03:56:26.423Z,7.00
2019-05-18T03:57:32.983Z,7.10
2019-05-18T03:58:37.394Z,7.10
2019-05-18T03:59:42.273Z,7.20
2019-05-18T04:00:47.629Z,7.20
2019-05-18T04:01:52.553Z,7.20
2019-05-18T04:02:56.873Z,7.20
2019-05-18T04:04:01.803Z,7.20
2019-05-18T04:05:07.803Z,7.20
2019-05-18T04:06:15.520Z,7.30
2019-05-18T04:07:19.869Z,7.40
2019-05-18T04:08:24.805Z,7.50
2019-05-18T04:09:29.228Z,7.50
2019-05-18T04:10:35.274Z,7.60
2019-05-18T04:11:39.588Z,7.70
2019-05-18T04:12:45.538Z,7.80
2019-05-18T04:13:49.909Z,7.80
2019-05-18T04:14:54.801Z,7.90
2019-05-18T04:15:59.119Z,7.90
2019-05-18T04:17:03.982Z,8.00
2019-05-18T04:18:08.401Z,8.10
2019-05-18T04:19:13.837Z,8.40
2019-05-18T04:20:18.394Z,8.70
2019-05-18T04:21:23.267Z,9.10
2019-05-18T04:22:27.725Z,9.50
2019-05-18T04:23:32.731Z,9.80
2019-05-18T04:24:37.070Z,10.10
2019-05-18T04:25:43.865Z,10.60
2019-05-18T04:26:51.501Z,11.00
2019-05-18T04:27:56.459Z,11.40
2019-05-18T04:29:01.325Z,11.70
2019-05-18T04:30:07.023Z,12.00
2019-05-18T04:31:11.761Z,12.40
2019-05-18T04:32:17.768Z,12.70
2019-05-18T04:33:22.215Z,13.00
2019-05-18T04:34:27.175Z,13.40
2019-05-18T04:35:31.560Z,13.80
2019-05-18T04:36:37.712Z,14.10
2019-05-18T04:37:42.050Z,14.40
2019-05-18T04:38:46.984Z,14.80
2019-05-18T04:39:51.784Z,15.10
2019-05-18T04:40:56.741Z,15.40
2019-05-18T04:42:01.052Z,15.70
2019-05-18T04:43:06.058Z,16.00
2019-05-18T04:44:11.272Z,16.40
2019-05-18T04:45:16.592Z,16.70
2019-05-18T04:46:21.160Z,17.00
2019-05-18T04:47:26.074Z,17.20
2019-05-18T04:48:30.967Z,17.50
2019-05-18T04:49:35.893Z,17.70
2019-05-18T04:50:40.237Z,18.00
2019-05-18T04:51:45.392Z,18.20
2019-05-18T04:52:49.796Z,18.40
2019-05-18T04:53:54.945Z,18.80
2019-05-18T04:54:59.403Z,19.00
2019-05-18T04:56:04.292Z,19.30
2019-05-18T04:57:08.840Z,19.50
2019-05-18T04:58:14.660Z,19.90
2019-05-18T04:59:18.995Z,20.10
2019-05-18T05:00:24.150Z,20.40
2019-05-18T05:01:28.736Z,20.60
2019-05-18T05:02:33.738Z,20.70
2019-05-18T05:03:38.597Z,20.80
2019-05-18T05:04:43.522Z,20.70
2019-05-18T05:05:52.856Z,20.90
2019-05-18T05:06:57.808Z,20.90
2019-05-18T05:08:02.166Z,21.00
2019-05-18T05:09:09.080Z,20.80
2019-05-18T05:10:14.341Z,20.70
2019-05-18T05:11:19.234Z,20.90
2019-05-18T05:12:23.572Z,20.80
2019-05-18T05:13:28.821Z,20.80
2019-05-18T05:14:34.459Z,20.90
2019-05-18T05:15:39.717Z,21.10
2019-05-18T05:16:44.093Z,21.00
2019-05-18T05:17:48.966Z,20.80
2019-05-18T05:19:12.679Z,20.40
2019-05-18T05:20:20.143Z,20.00
2019-05-18T05:21:23.825Z,20.10
2019-05-18T05:22:28.888Z,20.20
2019-05-18T05:23:33.253Z,20.20
2019-05-18T05:24:38.323Z,20.30
2019-05-18T05:25:42.777Z,20.50
2019-05-18T05:26:47.762Z,20.80
2019-05-18T05:27:52.355Z,20.90
2019-05-18T05:28:57.364Z,21.00
2019-05-18T05:30:01.713Z,21.30
2019-05-18T05:31:06.612Z,21.20
2019-05-18T05:32:11.340Z,21.00
2019-05-18T05:33:16.434Z,21.00
2019-05-18T05:34:20.947Z,21.00
2019-05-18T05:35:25.883Z,21.10
2019-05-18T05:36:30.794Z,21.10
2019-05-18T05:37:35.742Z,21.20
2019-05-18T05:38:40.165Z,21.30
2019-05-18T05:39:45.075Z,21.10
2019-05-18T05:40:49.568Z,21.50
2019-05-18T05:41:54.745Z,21.80
2019-05-18T05:43:00.463Z,22.10
2019-05-18T05:44:05.629Z,22.20
2019-05-18T05:45:10.254Z,22.40
2019-05-18T05:46:15.464Z,22.60
2019-05-18T05:47:19.969Z,23.00
2019-05-18T05:48:24.927Z,23.00
2019-05-18T05:49:29.378Z,23.20
2019-05-18T05:50:36.375Z,23.50
2019-05-18T05:51:40.603Z,23.60
2019-05-18T05:52:45.539Z,23.80
2019-05-18T05:53:50.011Z,23.70
2019-05-18T05:54:54.917Z,23.90
2019-05-18T05:56:00.739Z,23.90
2019-05-18T05:57:06.201Z,23.60
2019-05-18T05:58:11.021Z,23.70
2019-05-18T05:59:16.188Z,23.80
2019-05-18T06:00:22.072Z,24.20
2019-05-18T06:01:27.341Z,24.50
2019-05-18T06:02:31.839Z,25.10
2019-05-18T06:03:36.822Z,25.40
2019-05-18T06:04:41.393Z,25.70
2019-05-18T06:05:46.410Z,26.20
2019-05-18T06:06:50.854Z,26.20
2019-05-18T06:07:55.735Z,26.20
2019-05-18T06:09:00.147Z,26.50
2019-05-18T06:10:05.386Z,26.50
2019-05-18T06:11:10.158Z,26.70
2019-05-18T06:12:15.545Z,26.70
2019-05-18T06:13:19.901Z,26.70
2019-05-18T06:14:24.926Z,26.90
2019-05-18T06:15:29.316Z,27.10
2019-05-18T06:16:34.816Z,27.20
2019-05-18T06:17:39.335Z,27.50
2019-05-18T06:18:44.487Z,27.70
2019-05-18T06:19:48.921Z,28.00
2019-05-18T06:20:53.955Z,28.00
2019-05-18T06:21:58.448Z,28.20
2019-05-18T06:23:03.400Z,28.60
2019-05-18T06:24:07.812Z,28.80
2019-05-18T06:25:13.555Z,29.00
2019-05-18T06:26:18.004Z,29.30
2019-05-18T06:27:22.916Z,29.50
2019-05-18T06:28:27.559Z,29.60
2019-05-18T06:29:32.642Z,29.60
2019-05-18T06:30:37.032Z,29.70
2019-05-18T06:31:42.061Z,29.90
2019-05-18T06:32:46.817Z,29.90
2019-05-18T06:33:51.754Z,29.90
2019-05-18T06:34:56.130Z,29.70
2019-05-18T06:36:01.067Z,29.90
2019-05-18T06:37:05.424Z,30.10
2019-05-18T06:38:10.718Z,30.30
2019-05-18T06:39:15.384Z,30.50
2019-05-18T06:40:20.258Z,30.80
2019-05-18T06:41:24.753Z,31.00
2019-05-18T06:42:29.672Z,31.00
2019-05-18T06:43:34.139Z,30.90
2019-05-18T06:44:39.082Z,30.90
2019-05-18T06:45:43.548Z,31.00
2019-05-18T06:46:49.026Z,31.00
2019-05-18T06:47:54.505Z,31.20
2019-05-18T06:48:59.512Z,31.10
2019-05-18T06:50:04.383Z,31.10
2019-05-18T06:51:09.501Z,31.20
2019-05-18T06:52:16.777Z,31.20
2019-05-18T06:53:23.454Z,31.20
2019-05-18T06:54:28.316Z,31.20
2019-05-18T06:55:34.428Z,31.40
2019-05-18T06:56:39.490Z,31.70
2019-05-18T06:57:45.164Z,31.90
2019-05-18T06:58:50.405Z,32.20
2019-05-18T06:59:55.886Z,32.10
2019-05-18T07:01:00.590Z,31.90
2019-05-18T07:02:08.522Z,31.80
2019-05-18T07:03:13.590Z,31.70
2019-05-18T07:04:18.672Z,31.60
2019-05-18T07:05:23.365Z,31.60
2019-05-18T07:06:28.281Z,31.50
2019-05-18T07:07:32.753Z,31.50
2019-05-18T07:08:37.750Z,31.50
2019-05-18T07:09:42.318Z,31.40
2019-05-18T07:10:47.349Z,31.30
2019-05-18T07:11:51.839Z,31.30
2019-05-18T07:12:56.843Z,31.40
2019-05-18T07:14:01.272Z,31.20
2019-05-18T07:15:07.113Z,31.10
2019-05-18T07:16:14.046Z,31.00
2019-05-18T07:17:20.294Z,30.90
2019-05-18T07:18:28.582Z,31.00
2019-05-18T07:19:35.594Z,31.20
2019-05-18T07:20:40.026Z,31.30
2019-05-18T07:21:46.526Z,31.40
2019-05-18T07:22:51.062Z,31.60
2019-05-18T07:23:56.273Z,31.70
2019-05-18T07:25:00.624Z,31.80
2019-05-18T07:26:05.922Z,31.70
2019-05-18T07:27:12.786Z,31.70
2019-05-18T07:28:17.901Z,31.60
2019-05-18T07:29:22.282Z,31.70
2019-05-18T07:30:27.952Z,31.50
2019-05-18T07:31:32.639Z,31.50
2019-05-18T07:32:37.549Z,31.50
2019-05-18T07:33:42.175Z,31.20
2019-05-18T07:34:47.339Z,31.20
2019-05-18T07:35:51.826Z,31.00
2019-05-18T07:36:56.859Z,30.90
2019-05-18T07:38:01.349Z,31.00
2019-05-18T07:39:07.432Z,31.00
2019-05-18T07:40:12.587Z,30.90
2019-05-18T07:41:17.326Z,30.90
2019-05-18T07:42:21.692Z,31.10
2019-05-18T07:43:26.964Z,31.20
2019-05-18T07:44:31.652Z,31.40
2019-05-18T07:45:36.658Z,31.60
2019-05-18T07:46:41.056Z,31.80
2019-05-18T07:47:47.107Z,31.90
2019-05-18T07:48:51.479Z,32.10
2019-05-18T07:49:56.855Z,32.20
2019-05-18T07:51:01.246Z,32.50
2019-05-18T07:52:06.249Z,32.50
2019-05-18T07:53:10.809Z,32.30
2019-05-18T07:54:17.221Z,32.00
2019-05-18T07:55:26.411Z,31.70
2019-05-18T07:56:31.338Z,31.40
2019-05-18T07:57:35.749Z,31.50
2019-05-18T07:58:40.687Z,31.60
2019-05-18T07:59:45.110Z,31.60
2019-05-18T08:00:50.202Z,31.70
2019-05-18T08:01:57.198Z,31.80
2019-05-18T08:03:02.639Z,31.90
2019-05-18T08:04:07.337Z,31.80
2019-05-18T08:05:12.716Z,31.20
2019-05-18T08:06:17.228Z,31.00
2019-05-18T08:07:22.277Z,31.00
2019-05-18T08:08:26.721Z,31.10
2019-05-18T08:09:31.646Z,31.10
2019-05-18T08:10:38.245Z,31.30
2019-05-18T08:11:43.269Z,31.00
2019-05-18T08:12:47.678Z,30.60
2019-05-18T08:13:52.745Z,30.20
2019-05-18T08:14:57.183Z,30.00
2019-05-18T08:16:02.232Z,29.90
2019-05-18T08:17:08.084Z,29.70
2019-05-18T08:18:13.599Z,29.50
2019-05-18T08:19:18.056Z,29.20
2019-05-18T08:20:23.194Z,29.20
2019-05-18T08:21:29.441Z,29.10
2019-05-18T08:22:35.864Z,29.10
2019-05-18T08:23:40.282Z,28.90
2019-05-18T08:24:45.202Z,28.60
2019-05-18T08:25:49.607Z,28.20
2019-05-18T08:26:56.411Z,27.60
2019-05-18T08:28:00.804Z,27.20
2019-05-18T08:29:05.729Z,26.80
2019-05-18T08:30:11.822Z,26.70
2019-05-18T08:31:16.887Z,26.70
2019-05-18T08:32:21.330Z,26.80
2019-05-18T08:33:26.232Z,26.90
2019-05-18T08:34:30.640Z,27.20
2019-05-18T08:35:35.998Z,27.40
2019-05-18T08:36:40.450Z,27.80
2019-05-18T08:37:45.395Z,28.20
2019-05-18T08:38:50.040Z,28.60
2019-05-18T08:39:55.324Z,28.90
2019-05-18T08:40:59.881Z,28.90
2019-05-18T08:42:04.899Z,28.90
2019-05-18T08:43:09.392Z,28.70
2019-05-18T08:44:14.845Z,28.60
2019-05-18T08:45:19.487Z,28.60
2019-05-18T08:46:24.538Z,28.80
2019-05-18T08:47:28.957Z,28.90
2019-05-18T08:48:33.861Z,29.00
2019-05-18T08:49:38.415Z,29.20
2019-05-18T08:50:43.917Z,29.60
2019-05-18T08:51:49.469Z,29.70
2019-05-18T08:52:55.803Z,29.90
2019-05-18T08:54:01.957Z,30.40
2019-05-18T08:55:07.043Z,31.00
2019-05-18T08:56:11.798Z,31.10
2019-05-18T08:57:17.736Z,31.10
2019-05-18T08:58:22.182Z,30.90
2019-05-18T08:59:27.160Z,30.80
2019-05-18T09:00:34.147Z,30.40
2019-05-18T09:01:39.186Z,29.90
2019-05-18T09:02:43.601Z,29.70
2019-05-18T09:03:48.680Z,29.40
2019-05-18T09:04:53.218Z,29.50
2019-05-18T09:05:58.318Z,29.60
2019-05-18T09:07:02.783Z,29.50
2019-05-18T09:08:07.772Z,29.50
2019-05-18T09:09:14.327Z,29.20
2019-05-18T09:10:20.117Z,29.10
2019-05-18T09:11:24.479Z,28.80
2019-05-18T09:12:29.403Z,28.60
2019-05-18T09:13:33.825Z,28.70
2019-05-18T09:14:38.810Z,28.80
2019-05-18T09:15:43.453Z,28.80
2019-05-18T09:16:48.468Z,29.00
2019-05-18T09:17:54.651Z,29.40
2019-05-18T09:18:59.632Z,29.70
2019-05-18T09:20:04.283Z,29.70
2019-05-18T09:21:09.446Z,29.50
2019-05-18T09:22:22.753Z,29.60
2019-05-18T09:23:22.115Z,29.70
2019-05-18T09:24:26.487Z,29.80
2019-05-18T09:25:32.432Z,29.80
2019-05-18T09:26:36.937Z,29.80
2019-05-18T09:27:41.858Z,29.70
2019-05-18T09:28:46.341Z,29.50
2019-05-18T09:29:51.353Z,29.50
2019-05-18T09:30:55.730Z,29.50
2019-05-18T09:32:00.946Z,29.40
2019-05-18T09:33:05.421Z,29.10
2019-05-18T09:34:10.450Z,28.70
2019-05-18T09:35:15.773Z,28.40
2019-05-18T09:36:20.983Z,28.30
2019-05-18T09:37:25.445Z,28.40
2019-05-18T09:38:33.183Z,28.40
2019-05-18T09:39:36.629Z,28.40
2019-05-18T09:40:41.553Z,28.30
2019-05-18T09:41:46.047Z,28.10
2019-05-18T09:42:52.131Z,27.70
2019-05-18T09:43:57.713Z,27.50
2019-05-18T09:45:02.722Z,27.30
2019-05-18T09:46:07.293Z,27.20
2019-05-18T09:47:12.667Z,26.90
2019-05-18T09:48:17.104Z,26.80
2019-05-18T09:49:22.077Z,26.70
2019-05-18T09:50:26.422Z,26.60
2019-05-18T09:51:31.397Z,26.40
2019-05-18T09:52:44.841Z,26.20
2019-05-18T09:53:51.199Z,26.20
2019-05-18T09:54:48.903Z,26.30
2019-05-18T09:55:53.910Z,26.10
2019-05-18T09:56:59.760Z,26.10
2019-05-18T09:58:04.767Z,25.80
2019-05-18T09:59:09.113Z,25.60
2019-05-18T10:00:15.640Z,25.40
2019-05-18T10:01:20.128Z,25.20
2019-05-18T10:02:25.241Z,24.80
2019-05-18T10:03:29.902Z,24.60
2019-05-18T10:04:34.830Z,24.60
2019-05-18T10:05:39.184Z,24.50
2019-05-18T10:06:44.155Z,24.40
2019-05-18T10:07:48.637Z,24.40
2019-05-18T10:08:55.082Z,24.70
2019-05-18T10:09:59.641Z,24.80
2019-05-18T10:11:04.569Z,24.80
2019-05-18T10:12:08.966Z,24.80
2019-05-18T10:13:14.339Z,24.90
2019-05-18T10:14:18.844Z,24.90
2019-05-18T10:15:23.790Z,24.90
2019-05-18T10:16:28.345Z,25.00
2019-05-18T10:17:33.378Z,25.20
2019-05-18T10:18:37.786Z,25.20
2019-05-18T10:19:42.717Z,25.00
2019-05-18T10:20:47.308Z,24.90
2019-05-18T10:21:52.205Z,25.00
2019-05-18T10:23:11.803Z,25.00
2019-05-18T10:24:03.492Z,25.00
2019-05-18T10:25:08.999Z,24.90
2019-05-18T10:26:14.486Z,24.60
2019-05-18T10:27:18.968Z,24.50
2019-05-18T10:28:24.014Z,24.30
2019-05-18T10:29:28.506Z,24.40
2019-05-18T10:30:33.479Z,24.40
2019-05-18T10:31:37.967Z,24.40
2019-05-18T10:32:42.923Z,24.60
2019-05-18T10:33:47.357Z,24.60
2019-05-18T10:34:52.619Z,24.50
2019-05-18T10:35:57.100Z,24.30
2019-05-18T10:37:02.114Z,24.20
2019-05-18T10:38:06.479Z,23.90
2019-05-18T10:39:11.566Z,23.90
2019-05-18T10:40:17.598Z,24.00
2019-05-18T10:41:22.795Z,24.00
2019-05-18T10:42:27.244Z,24.00
2019-05-18T10:43:33.258Z,24.30
2019-05-18T10:44:37.832Z,24.50
2019-05-18T10:45:45.064Z,24.80
2019-05-18T10:46:48.912Z,25.00
2019-05-18T10:47:53.916Z,25.40
2019-05-18T10:48:58.303Z,25.60
2019-05-18T10:50:03.301Z,25.90
2019-05-18T10:51:07.648Z,26.00
2019-05-18T10:52:13.224Z,26.20
2019-05-18T10:53:28.397Z,26.20
2019-05-18T10:54:24.252Z,25.90
2019-05-18T10:55:28.686Z,25.80
2019-05-18T10:56:33.607Z,25.60
2019-05-18T10:57:38.119Z,25.60
2019-05-18T10:58:43.199Z,25.60
2019-05-18T10:59:47.873Z,25.80
2019-05-18T11:00:52.854Z,25.60
2019-05-18T11:01:57.241Z,25.50
2019-05-18T11:03:02.224Z,25.60
2019-05-18T11:04:06.703Z,25.60
2019-05-18T11:05:15.051Z,25.60
2019-05-18T11:06:19.441Z,25.60
2019-05-18T11:07:28.852Z,25.60
2019-05-18T11:08:33.239Z,25.70
2019-05-18T11:09:38.253Z,25.70
2019-05-18T11:10:42.615Z,25.70
2019-05-18T11:11:47.694Z,25.70
2019-05-18T11:12:52.269Z,25.80
2019-05-18T11:13:57.378Z,25.80
2019-05-18T11:15:02.008Z,25.60
2019-05-18T11:16:07.062Z,25.40
2019-05-18T11:17:11.789Z,25.40
2019-05-18T11:18:16.928Z,25.40
2019-05-18T11:19:21.379Z,25.60
2019-05-18T11:20:26.306Z,25.60
2019-05-18T11:21:30.733Z,25.70
2019-05-18T11:22:35.695Z,25.80
2019-05-18T11:23:59.523Z,25.80
2019-05-18T11:25:04.461Z,25.70
2019-05-18T11:26:10.728Z,25.60
2019-05-18T11:27:16.038Z,25.60
2019-05-18T11:28:20.381Z,25.60
2019-05-18T11:29:25.342Z,25.50
2019-05-18T11:30:30.202Z,25.60
2019-05-18T11:31:35.107Z,25.50
2019-05-18T11:32:39.533Z,25.30
2019-05-18T11:33:44.469Z,25.20
2019-05-18T11:34:48.880Z,25.00
2019-05-18T11:35:55.775Z,24.80
2019-05-18T11:37:03.102Z,24.50
2019-05-18T11:38:07.005Z,24.30
2019-05-18T11:39:12.142Z,24.30
2019-05-18T11:40:17.531Z,24.20
2019-05-18T11:41:22.064Z,24.10
2019-05-18T11:42:26.983Z,24.10
2019-05-18T11:43:31.553Z,24.10
2019-05-18T11:44:36.468Z,24.00
2019-05-18T11:45:40.874Z,24.10
2019-05-18T11:46:45.852Z,24.00
2019-05-18T11:47:50.214Z,24.00
2019-05-18T11:48:55.399Z,23.90
2019-05-18T11:50:00.089Z,23.90
2019-05-18T11:51:05.142Z,23.80
2019-05-18T11:52:09.508Z,23.80
2019-05-18T11:53:16.134Z,23.80
2019-05-18T11:54:20.592Z,23.80
2019-05-18T11:55:27.057Z,23.60
2019-05-18T11:56:35.704Z,23.60
2019-05-18T11:57:40.785Z,23.60
2019-05-18T11:58:45.217Z,23.50
2019-05-18T11:59:50.257Z,23.50
2019-05-18T12:00:54.720Z,23.50
2019-05-18T12:02:01.463Z,23.60
2019-05-18T12:03:06.221Z,23.60
2019-05-18T12:04:11.402Z,23.60
2019-05-18T12:05:17.442Z,23.60
2019-05-18T12:06:22.388Z,23.70
2019-05-18T12:07:26.829Z,23.70
2019-05-18T12:08:31.827Z,23.70
2019-05-18T12:09:36.246Z,23.80
2019-05-18T12:10:42.865Z,23.70
2019-05-18T12:11:47.383Z,23.70
2019-05-18T12:12:52.364Z,23.70
2019-05-18T12:14:15.842Z,23.50
2019-05-18T12:15:21.555Z,23.50
2019-05-18T12:16:25.933Z,23.60
2019-05-18T12:17:32.688Z,23.70
2019-05-18T12:18:37.304Z,23.70
2019-05-18T12:19:42.499Z,23.70
2019-05-18T12:20:46.957Z,23.70
2019-05-18T12:21:51.947Z,23.80
2019-05-18T12:22:56.316Z,23.80
2019-05-18T12:24:14.845Z,23.90
2019-05-18T12:25:08.407Z,24.00
2019-05-18T12:26:13.924Z,24.10
2019-05-18T12:27:18.513Z,24.10
2019-05-18T12:28:23.472Z,24.10
2019-05-18T12:29:27.935Z,24.10
2019-05-18T12:30:32.937Z,24.10
2019-05-18T12:31:38.415Z,24.10
2019-05-18T12:32:43.727Z,24.00
2019-05-18T12:33:48.190Z,23.90
2019-05-18T12:34:53.148Z,24.00
2019-05-18T12:35:58.016Z,23.90
2019-05-18T12:37:03.012Z,23.80
2019-05-18T12:38:07.747Z,23.70
2019-05-18T12:39:12.987Z,23.60
2019-05-18T12:40:19.274Z,23.40
2019-05-18T12:41:30.120Z,23.40
2019-05-18T12:42:34.590Z,23.30
2019-05-18T12:43:39.533Z,23.40
2019-05-18T12:44:44.140Z,23.30
2019-05-18T12:45:49.069Z,23.30
2019-05-18T12:46:53.599Z,23.20
2019-05-18T12:47:58.843Z,23.30
2019-05-18T12:49:03.313Z,23.30
2019-05-18T12:50:13.993Z,23.40
2019-05-18T12:51:18.469Z,23.60
2019-05-18T12:52:23.439Z,23.90
2019-05-18T12:53:27.901Z,24.10
2019-05-18T12:54:45.650Z,24.20
2019-05-18T12:55:38.967Z,24.20
2019-05-18T12:56:45.008Z,24.40
2019-05-18T12:57:49.431Z,24.50
2019-05-18T12:58:54.413Z,24.70
2019-05-18T12:59:58.789Z,24.80
2019-05-18T13:01:03.725Z,24.90
2019-05-18T13:02:11.492Z,24.90
2019-05-18T13:03:16.923Z,25.00
2019-05-18T13:04:22.835Z,25.20
2019-05-18T13:05:27.833Z,25.30
2019-05-18T13:06:32.321Z,25.40
2019-05-18T13:07:37.330Z,25.60
2019-05-18T13:08:41.923Z,25.80
2019-05-18T13:09:47.057Z,26.00
2019-05-18T13:10:51.522Z,26.10
2019-05-18T13:11:56.520Z,26.10
2019-05-18T13:14:27.225Z,25.90
2019-05-18T13:15:32.132Z,26.00
2019-05-18T13:16:36.581Z,25.80
2019-05-18T13:17:41.605Z,25.60
2019-05-18T13:18:46.050Z,25.50
2019-05-18T13:19:51.076Z,25.40
2019-05-18T13:20:55.524Z,25.40
2019-05-18T13:22:00.543Z,25.30
2019-05-18T13:23:05.020Z,25.30
2019-05-18T13:24:10.012Z,25.10
2019-05-18T13:25:15.328Z,25.00
2019-05-18T13:26:20.424Z,24.80
2019-05-18T13:27:38.280Z,24.60
2019-05-18T13:28:31.539Z,24.40
2019-05-18T13:29:36.792Z,24.40
2019-05-18T13:30:41.864Z,24.30
2019-05-18T13:31:46.351Z,24.30
2019-05-18T13:32:52.399Z,24.20
2019-05-18T13:33:56.872Z,24.20
2019-05-18T13:35:02.262Z,24.10
2019-05-18T13:36:07.175Z,23.90
2019-05-18T13:37:12.592Z,23.80
2019-05-18T13:39:28.988Z,23.60
2019-05-18T13:40:33.576Z,23.50
2019-05-18T13:41:39.870Z,23.30
2019-05-18T13:42:44.303Z,23.30
2019-05-18T13:43:49.225Z,23.20
2019-05-18T13:44:53.789Z,23.20
2019-05-18T13:45:58.754Z,23.20
2019-05-18T13:47:03.224Z,23.30
2019-05-18T13:48:08.240Z,23.40
2019-05-18T13:49:13.233Z,23.50
2019-05-18T13:50:18.929Z,23.60
2019-05-18T13:51:23.281Z,23.50
2019-05-18T13:52:28.267Z,23.50
2019-05-18T13:53:32.828Z,23.50
2019-05-18T13:54:37.960Z,23.40
2019-05-18T13:55:42.500Z,23.50
2019-05-18T13:56:47.605Z,23.70
2019-05-18T13:57:52.149Z,23.90
2019-05-18T13:58:57.371Z,24.10
2019-05-18T14:00:03.026Z,24.30
2019-05-18T14:01:09.435Z,24.50
2019-05-18T14:02:14.235Z,24.60
2019-05-18T14:03:19.328Z,24.80
2019-05-18T14:04:24.855Z,24.80
2019-05-18T14:05:29.859Z,24.90
2019-05-18T14:06:35.429Z,24.90
2019-05-18T14:07:40.545Z,24.90
2019-05-18T14:08:45.167Z,24.90
2019-05-18T14:09:51.233Z,24.90